Flight Track Log - Related Links

Times and Time Zones

All times are in EDT time to prevent confusion due to time zone crossing. See the GGA1 flight status page for this flight to view local times or setup timezone preferences in your user account.

Time Position Orientation Groundspeed Altitude Reporting Facility
EDT Latitude Longitude Course Direction KTS MPH feet Rate Location/Type
Sat 03:30:49 PM 33.8000 -84.5500 80° East 105 121 2,500  Level Atlanta TRACON
Sat 03:31:43 PM 33.8167 -84.5667 320° Northwest 117 135 4,200 1,316 Climbing Atlanta TRACON
Sat 03:32:43 PM 33.8500 -84.5833 337° Northwest 172 198 5,000 368 Climbing Atlanta TRACON
Sat 03:33:37 PM 33.8500 -84.5167 90° East 224 258 4,900 -53 Descending Atlanta TRACON
Sat 03:34:37 PM 33.8500 -84.4333 90° East 236 272 4,900 50 Level Atlanta TRACON
Sat 03:35:37 PM 33.8667 -84.3667 73° East 237 273 5,000  Climbing Atlanta TRACON
Sat 03:36:00 PM 33.8160 -84.1514 80° East  Level FlightAware Approximate
Sat 03:36:43 PM 33.8667 -84.2667 90° East 245 282 4,900  Level Atlanta TRACON
Sat 03:37:37 PM 33.8833 -84.2000 73° East 241 277 4,900  Level Atlanta TRACON
Sat 03:38:38 PM 33.8833 -84.1167 90° East 235 270 4,900 48 Level Atlanta TRACON
Sat 03:39:43 PM 33.8833 -84.0333 90° East 240 276 5,000  Climbing Atlanta TRACON
Sat 03:40:43 PM 33.9000 -83.9500 76° East 239 275 4,900 -50 Descending Atlanta TRACON
Sat 03:41:43 PM 33.9000 -83.8667 90° East 239 275 4,900  Level Atlanta TRACON
Sat 03:42:37 PM 33.9167 -83.8000 73° East 241 277 4,900  Level Atlanta TRACON
Sat 03:43:37 PM 33.9167 -83.7167 90° East 242 278 4,900  Level Atlanta TRACON
Sat 03:44:37 PM 33.9167 -83.6333 90° East 244 281 4,900 -300 Level Atlanta TRACON
Sat 03:45:37 PM 33.9333 -83.5500 76° East 248 285 4,300 -933 Descending Atlanta TRACON
Sat 03:47:00 PM 33.9135 -83.4626 73° East  Level FlightAware Approximate
Sat 03:47:37 PM 33.9500 -83.4167 73° East 191 220 2,100  Level Atlanta TRACON
Sat 03:48:31 PM 33.9500 -83.3500 90° East 155 178 1,100 -1,111 Descending Atlanta TRACON

Login

Don't have an account? Register now (free) for customized features, flight alerts, and more!